createdAt,value
2023-01-10T08:39:51.385Z,14.20
2023-01-10T08:42:58.730Z,14.65
2023-01-10T08:58:01.517Z,13.23
2023-01-10T09:01:05.344Z,13.45
2023-01-10T09:04:07.874Z,12.68
2023-01-10T09:07:10.400Z,12.15
2023-01-10T09:10:13.258Z,11.75
2023-01-10T09:13:17.193Z,12.27
2023-01-10T09:16:20.065Z,10.32
2023-01-10T09:19:22.536Z,10.25
2023-01-10T09:35:06.200Z,10.35
2023-01-10T09:38:14.540Z,9.75
2023-01-10T09:41:37.140Z,8.48
2023-01-10T09:44:47.213Z,9.23
2023-01-10T09:47:54.912Z,8.48
2023-01-10T09:51:15.271Z,8.52
2023-01-10T09:54:24.352Z,8.15
2023-01-10T09:57:27.525Z,8.45
2023-01-10T10:00:40.264Z,8.48
2023-01-10T10:03:49.855Z,6.72
2023-01-10T10:06:54.391Z,6.97
2023-01-10T10:09:57.030Z,6.47
2023-01-10T10:13:23.223Z,5.72
2023-01-10T10:16:50.318Z,5.55
2023-01-10T10:20:01.530Z,6.57
2023-01-10T10:23:19.745Z,5.93
2023-01-10T10:26:33.511Z,6.25
2023-01-10T10:30:05.586Z,5.65
2023-01-10T10:33:24.140Z,6.85
2023-01-10T10:36:31.732Z,6.75
2023-01-10T10:39:39.389Z,6.93
2023-01-10T10:42:47.162Z,6.18
2023-01-10T10:45:55.618Z,6.72
2023-01-10T10:49:00.567Z,6.95
2023-01-10T10:52:09.496Z,6.07
2023-01-10T10:55:16.704Z,5.50
2023-01-10T10:58:19.263Z,5.63
2023-01-10T11:01:25.345Z,4.65
2023-01-10T11:04:29.487Z,5.50
2023-01-10T11:07:34.893Z,4.78
2023-01-10T11:10:39.318Z,4.97
2023-01-10T11:13:47.324Z,4.95
2023-01-10T11:16:49.870Z,4.65
2023-01-10T11:19:57.982Z,5.07
2023-01-10T11:23:00.742Z,4.68
2023-01-10T11:26:05.259Z,4.50
2023-01-10T11:29:09.868Z,4.80
2023-01-10T11:32:15.474Z,5.55
2023-01-10T11:35:22.163Z,4.18
2023-01-10T11:38:29.229Z,4.97
2023-01-10T11:41:34.426Z,4.88
2023-01-10T11:44:36.908Z,4.30
2023-01-10T11:47:45.749Z,4.32
2023-01-10T11:50:51.443Z,4.40
2023-01-10T11:53:59.909Z,4.05
2023-01-10T11:57:08.761Z,4.03
2023-01-10T12:00:12.997Z,4.03
2023-01-10T12:03:23.618Z,4.13
2023-01-10T12:06:26.858Z,4.35
2023-01-10T12:09:42.393Z,4.15
2023-01-10T12:12:55.207Z,4.30
2023-01-10T12:16:22.220Z,4.13
2023-01-10T12:19:25.001Z,4.00
2023-01-10T12:22:31.888Z,4.93
2023-01-10T12:25:37.998Z,3.25
2023-01-10T12:28:48.522Z,3.78
2023-01-10T12:31:53.995Z,3.47
2023-01-10T12:35:02.198Z,3.47
2023-01-10T12:38:10.730Z,3.55
2023-01-10T12:41:40.786Z,2.88
2023-01-10T12:44:45.274Z,3.05
2023-01-10T12:47:56.468Z,3.40
2023-01-10T12:51:05.765Z,3.03
2023-01-10T12:54:16.071Z,3.65
2023-01-10T12:57:26.791Z,3.35
2023-01-10T13:00:40.486Z,3.30
2023-01-10T13:03:55.441Z,3.85
2023-01-10T13:06:59.019Z,3.08
2023-01-10T13:17:49.105Z,3.88
2023-01-10T13:21:04.958Z,4.03
2023-01-10T13:24:20.544Z,4.40
2023-01-10T13:27:24.761Z,4.13
2023-01-10T13:30:30.074Z,4.15
2023-01-10T14:14:53.159Z,4.55
2023-01-10T14:18:03.197Z,3.85
2023-01-10T14:21:09.079Z,3.80
